sensor_id;sensor_type;location;lat;lon;timestamp;P1;durP1;ratioP1;P2;durP2;ratioP2
13443;SDS011;6794;59.218;18.218;2022-11-03T00:01:53;14.77;;;5.33;;
13443;SDS011;6794;59.218;18.218;2022-11-03T00:04:20;14.30;;;5.47;;
13443;SDS011;6794;59.218;18.218;2022-11-03T00:06:50;10.83;;;4.97;;
13443;SDS011;6794;59.218;18.218;2022-11-03T00:09:17;42.60;;;6.40;;
13443;SDS011;6794;59.218;18.218;2022-11-03T00:11:44;27.40;;;5.50;;
13443;SDS011;6794;59.218;18.218;2022-11-03T00:14:11;11.43;;;4.77;;
13443;SDS011;6794;59.218;18.218;2022-11-03T00:16:38;7.77;;;3.90;;
13443;SDS011;6794;59.218;18.218;2022-11-03T00:19:04;5.30;;;3.50;;
13443;SDS011;6794;59.218;18.218;2022-11-03T00:21:31;20.17;;;4.43;;
13443;SDS011;6794;59.218;18.218;2022-11-03T00:23:57;17.70;;;4.67;;
13443;SDS011;6794;59.218;18.218;2022-11-03T00:26:26;9.13;;;5.17;;
13443;SDS011;6794;59.218;18.218;2022-11-03T00:28:53;15.77;;;4.57;;
13443;SDS011;6794;59.218;18.218;2022-11-03T00:31:20;8.77;;;5.60;;
13443;SDS011;6794;59.218;18.218;2022-11-03T00:33:47;9.57;;;4.37;;
13443;SDS011;6794;59.218;18.218;2022-11-03T00:36:14;145.37;;;10.40;;
13443;SDS011;6794;59.218;18.218;2022-11-03T00:38:41;62.40;;;7.83;;
13443;SDS011;6794;59.218;18.218;2022-11-03T00:41:07;40.60;;;6.80;;
13443;SDS011;6794;59.218;18.218;2022-11-03T00:43:34;49.83;;;7.73;;
13443;SDS011;6794;59.218;18.218;2022-11-03T00:46:00;21.63;;;5.10;;
13443;SDS011;6794;59.218;18.218;2022-11-03T00:48:27;10.77;;;4.70;;
13443;SDS011;6794;59.218;18.218;2022-11-03T00:50:59;8.77;;;4.57;;
13443;SDS011;6794;59.218;18.218;2022-11-03T00:53:26;100.03;;;10.37;;
13443;SDS011;6794;59.218;18.218;2022-11-03T00:55:52;40.27;;;5.93;;
13443;SDS011;6794;59.218;18.218;2022-11-03T00:58:18;28.13;;;5.27;;
13443;SDS011;6794;59.218;18.218;2022-11-03T01:00:44;15.17;;;4.70;;
13443;SDS011;6794;59.218;18.218;2022-11-03T01:03:10;7.60;;;3.93;;
13443;SDS011;6794;59.218;18.218;2022-11-03T01:05:42;24.50;;;5.10;;
13443;SDS011;6794;59.218;18.218;2022-11-03T01:08:34;17.73;;;4.47;;
13443;SDS011;6794;59.218;18.218;2022-11-03T01:11:04;21.13;;;4.70;;
13443;SDS011;6794;59.218;18.218;2022-11-03T01:13:48;15.07;;;5.65;;
13443;SDS011;6794;59.218;18.218;2022-11-03T01:16:15;16.60;;;5.40;;
13443;SDS011;6794;59.218;18.218;2022-11-03T01:18:41;17.20;;;5.10;;
13443;SDS011;6794;59.218;18.218;2022-11-03T01:21:07;14.50;;;4.70;;
13443;SDS011;6794;59.218;18.218;2022-11-03T01:23:36;23.97;;;5.30;;
13443;SDS011;6794;59.218;18.218;2022-11-03T01:26:03;35.03;;;5.40;;
13443;SDS011;6794;59.218;18.218;2022-11-03T01:28:29;17.40;;;4.50;;
13443;SDS011;6794;59.218;18.218;2022-11-03T01:31:00;45.63;;;6.07;;
13443;SDS011;6794;59.218;18.218;2022-11-03T01:33:27;38.70;;;5.57;;
13443;SDS011;6794;59.218;18.218;2022-11-03T01:35:53;19.37;;;5.07;;
13443;SDS011;6794;59.218;18.218;2022-11-03T01:38:19;12.23;;;3.90;;
13443;SDS011;6794;59.218;18.218;2022-11-03T01:40:45;20.67;;;5.13;;
13443;SDS011;6794;59.218;18.218;2022-11-03T01:43:15;35.57;;;5.17;;
13443;SDS011;6794;59.218;18.218;2022-11-03T01:45:41;14.10;;;4.30;;
13443;SDS011;6794;59.218;18.218;2022-11-03T01:48:08;11.07;;;3.87;;
13443;SDS011;6794;59.218;18.218;2022-11-03T01:50:34;13.50;;;4.43;;
13443;SDS011;6794;59.218;18.218;2022-11-03T01:53:00;30.17;;;5.30;;
13443;SDS011;6794;59.218;18.218;2022-11-03T01:55:27;12.93;;;4.80;;
13443;SDS011;6794;59.218;18.218;2022-11-03T01:57:58;39.87;;;6.77;;
13443;SDS011;6794;59.218;18.218;2022-11-03T02:00:25;47.37;;;6.30;;
13443;SDS011;6794;59.218;18.218;2022-11-03T02:02:51;26.87;;;5.33;;
13443;SDS011;6794;59.218;18.218;2022-11-03T02:05:18;7.10;;;3.77;;
13443;SDS011;6794;59.218;18.218;2022-11-03T02:10:10;16.17;;;4.50;;
13443;SDS011;6794;59.218;18.218;2022-11-03T02:12:36;6.53;;;3.60;;
13443;SDS011;6794;59.218;18.218;2022-11-03T02:15:04;7.97;;;3.63;;
13443;SDS011;6794;59.218;18.218;2022-11-03T02:17:31;4.57;;;3.60;;
13443;SDS011;6794;59.218;18.218;2022-11-03T02:19:59;33.73;;;5.10;;
13443;SDS011;6794;59.218;18.218;2022-11-03T02:27:30;10.70;;;3.77;;
13443;SDS011;6794;59.218;18.218;2022-11-03T02:29:57;6.10;;;3.07;;
13443;SDS011;6794;59.218;18.218;2022-11-03T02:32:24;6.77;;;3.30;;
13443;SDS011;6794;59.218;18.218;2022-11-03T02:34:59;4.97;;;2.90;;
13443;SDS011;6794;59.218;18.218;2022-11-03T02:37:27;4.57;;;2.90;;
13443;SDS011;6794;59.218;18.218;2022-11-03T02:40:05;4.77;;;2.90;;
13443;SDS011;6794;59.218;18.218;2022-11-03T02:42:33;6.35;;;4.53;;
13443;SDS011;6794;59.218;18.218;2022-11-03T02:45:01;6.10;;;3.00;;
13443;SDS011;6794;59.218;18.218;2022-11-03T02:47:28;5.77;;;3.00;;
13443;SDS011;6794;59.218;18.218;2022-11-03T02:49:55;4.77;;;3.07;;
13443;SDS011;6794;59.218;18.218;2022-11-03T02:55:10;4.57;;;2.90;;
13443;SDS011;6794;59.218;18.218;2022-11-03T02:57:39;4.03;;;2.83;;
13443;SDS011;6794;59.218;18.218;2022-11-03T03:00:08;4.77;;;2.80;;
13443;SDS011;6794;59.218;18.218;2022-11-03T03:02:37;4.73;;;3.20;;
13443;SDS011;6794;59.218;18.218;2022-11-03T03:05:07;4.63;;;3.33;;
13443;SDS011;6794;59.218;18.218;2022-11-03T03:07:35;8.73;;;3.50;;
13443;SDS011;6794;59.218;18.218;2022-11-03T03:12:28;8.20;;;3.07;;
13443;SDS011;6794;59.218;18.218;2022-11-03T03:14:55;6.43;;;3.10;;
13443;SDS011;6794;59.218;18.218;2022-11-03T03:17:25;13.70;;;4.00;;
13443;SDS011;6794;59.218;18.218;2022-11-03T03:20:01;13.37;;;4.17;;
13443;SDS011;6794;59.218;18.218;2022-11-03T03:27:59;9.67;;;4.50;;
13443;SDS011;6794;59.218;18.218;2022-11-03T03:30:28;11.70;;;4.00;;
13443;SDS011;6794;59.218;18.218;2022-11-03T03:32:54;10.57;;;3.87;;
13443;SDS011;6794;59.218;18.218;2022-11-03T03:35:22;26.30;;;4.90;;
13443;SDS011;6794;59.218;18.218;2022-11-03T03:37:50;20.90;;;4.87;;
13443;SDS011;6794;59.218;18.218;2022-11-03T03:40:24;16.90;;;5.00;;
13443;SDS011;6794;59.218;18.218;2022-11-03T03:42:52;16.20;;;4.40;;
13443;SDS011;6794;59.218;18.218;2022-11-03T03:45:18;6.67;;;3.73;;
13443;SDS011;6794;59.218;18.218;2022-11-03T03:47:44;5.47;;;3.40;;
13443;SDS011;6794;59.218;18.218;2022-11-03T03:50:11;5.47;;;3.50;;
13443;SDS011;6794;59.218;18.218;2022-11-03T03:52:37;32.80;;;5.37;;
13443;SDS011;6794;59.218;18.218;2022-11-03T03:55:03;8.03;;;3.97;;
13443;SDS011;6794;59.218;18.218;2022-11-03T03:57:31;13.93;;;4.50;;
13443;SDS011;6794;59.218;18.218;2022-11-03T03:59:57;9.80;;;4.80;;
13443;SDS011;6794;59.218;18.218;2022-11-03T04:02:23;8.30;;;4.47;;
13443;SDS011;6794;59.218;18.218;2022-11-03T04:04:50;8.30;;;4.67;;
13443;SDS011;6794;59.218;18.218;2022-11-03T04:07:16;7.57;;;4.50;;
13443;SDS011;6794;59.218;18.218;2022-11-03T04:10:01;9.23;;;4.30;;
13443;SDS011;6794;59.218;18.218;2022-11-03T04:12:27;9.27;;;4.80;;
13443;SDS011;6794;59.218;18.218;2022-11-03T04:15:11;11.77;;;6.45;;
13443;SDS011;6794;59.218;18.218;2022-11-03T04:17:56;9.50;;;4.57;;
13443;SDS011;6794;59.218;18.218;2022-11-03T04:20:41;7.97;;;3.90;;
13443;SDS011;6794;59.218;18.218;2022-11-03T04:23:26;5.47;;;3.37;;
13443;SDS011;6794;59.218;18.218;2022-11-03T04:25:53;4.87;;;3.60;;
13443;SDS011;6794;59.218;18.218;2022-11-03T04:28:19;6.63;;;3.50;;
13443;SDS011;6794;59.218;18.218;2022-11-03T04:30:45;4.70;;;3.10;;
13443;SDS011;6794;59.218;18.218;2022-11-03T04:33:15;5.07;;;4.00;;
13443;SDS011;6794;59.218;18.218;2022-11-03T04:35:42;6.50;;;3.27;;
13443;SDS011;6794;59.218;18.218;2022-11-03T04:40:44;3.93;;;3.20;;
13443;SDS011;6794;59.218;18.218;2022-11-03T04:43:14;4.27;;;3.10;;
13443;SDS011;6794;59.218;18.218;2022-11-03T04:45:41;5.37;;;3.53;;
13443;SDS011;6794;59.218;18.218;2022-11-03T04:48:12;5.83;;;3.60;;
13443;SDS011;6794;59.218;18.218;2022-11-03T04:50:38;4.40;;;3.03;;
13443;SDS011;6794;59.218;18.218;2022-11-03T04:53:08;6.53;;;3.33;;
13443;SDS011;6794;59.218;18.218;2022-11-03T04:55:35;5.47;;;3.33;;
13443;SDS011;6794;59.218;18.218;2022-11-03T04:58:05;5.40;;;3.03;;
13443;SDS011;6794;59.218;18.218;2022-11-03T05:00:32;4.07;;;2.70;;
13443;SDS011;6794;59.218;18.218;2022-11-03T05:02:58;5.17;;;2.80;;
13443;SDS011;6794;59.218;18.218;2022-11-03T05:05:24;8.57;;;3.30;;
13443;SDS011;6794;59.218;18.218;2022-11-03T05:07:51;5.70;;;3.70;;
13443;SDS011;6794;59.218;18.218;2022-11-03T05:10:19;6.37;;;3.00;;
13443;SDS011;6794;59.218;18.218;2022-11-03T05:12:47;8.17;;;3.47;;
13443;SDS011;6794;59.218;18.218;2022-11-03T05:17:48;5.17;;;2.87;;
13443;SDS011;6794;59.218;18.218;2022-11-03T05:20:23;6.30;;;3.70;;
13443;SDS011;6794;59.218;18.218;2022-11-03T05:22:51;5.17;;;3.63;;
13443;SDS011;6794;59.218;18.218;2022-11-03T05:25:51;5.37;;;3.80;;
13443;SDS011;6794;59.218;18.218;2022-11-03T05:28:15;5.67;;;3.10;;
13443;SDS011;6794;59.218;18.218;2022-11-03T05:30:44;7.23;;;3.70;;
13443;SDS011;6794;59.218;18.218;2022-11-03T05:33:16;8.33;;;3.80;;
13443;SDS011;6794;59.218;18.218;2022-11-03T05:35:43;7.30;;;3.90;;
13443;SDS011;6794;59.218;18.218;2022-11-03T05:38:10;8.77;;;3.63;;
13443;SDS011;6794;59.218;18.218;2022-11-03T05:40:37;7.33;;;3.40;;
13443;SDS011;6794;59.218;18.218;2022-11-03T05:43:03;9.27;;;3.80;;
13443;SDS011;6794;59.218;18.218;2022-11-03T05:45:30;10.90;;;5.13;;
13443;SDS011;6794;59.218;18.218;2022-11-03T05:47:57;15.32;;;6.65;;
13443;SDS011;6794;59.218;18.218;2022-11-03T05:50:24;10.93;;;4.33;;
13443;SDS011;6794;59.218;18.218;2022-11-03T05:52:51;11.03;;;4.47;;
13443;SDS011;6794;59.218;18.218;2022-11-03T05:55:26;7.83;;;4.70;;
13443;SDS011;6794;59.218;18.218;2022-11-03T05:57:55;9.07;;;3.67;;
13443;SDS011;6794;59.218;18.218;2022-11-03T06:00:26;10.17;;;4.33;;
13443;SDS011;6794;59.218;18.218;2022-11-03T06:02:53;12.07;;;5.50;;
13443;SDS011;6794;59.218;18.218;2022-11-03T06:05:20;15.17;;;5.23;;
13443;SDS011;6794;59.218;18.218;2022-11-03T06:07:47;7.73;;;4.77;;
13443;SDS011;6794;59.218;18.218;2022-11-03T06:10:19;12.03;;;4.80;;
13443;SDS011;6794;59.218;18.218;2022-11-03T06:12:46;12.37;;;5.43;;
13443;SDS011;6794;59.218;18.218;2022-11-03T06:15:20;10.77;;;4.93;;
13443;SDS011;6794;59.218;18.218;2022-11-03T06:17:46;10.40;;;4.43;;
13443;SDS011;6794;59.218;18.218;2022-11-03T06:20:15;8.70;;;4.07;;
13443;SDS011;6794;59.218;18.218;2022-11-03T06:22:43;8.13;;;3.87;;
13443;SDS011;6794;59.218;18.218;2022-11-03T06:25:31;6.20;;;3.87;;
13443;SDS011;6794;59.218;18.218;2022-11-03T06:28:01;9.67;;;4.43;;
13443;SDS011;6794;59.218;18.218;2022-11-03T06:30:38;8.53;;;3.70;;
13443;SDS011;6794;59.218;18.218;2022-11-03T06:33:11;8.90;;;3.93;;
13443;SDS011;6794;59.218;18.218;2022-11-03T06:35:38;8.13;;;4.40;;
13443;SDS011;6794;59.218;18.218;2022-11-03T06:38:07;5.33;;;3.73;;
13443;SDS011;6794;59.218;18.218;2022-11-03T06:40:37;5.60;;;3.70;;
13443;SDS011;6794;59.218;18.218;2022-11-03T06:43:20;7.00;;;4.33;;
13443;SDS011;6794;59.218;18.218;2022-11-03T06:45:53;8.43;;;3.57;;
13443;SDS011;6794;59.218;18.218;2022-11-03T06:48:27;7.83;;;3.93;;
13443;SDS011;6794;59.218;18.218;2022-11-03T06:50:54;6.23;;;3.80;;
13443;SDS011;6794;59.218;18.218;2022-11-03T06:53:41;7.17;;;4.30;;
13443;SDS011;6794;59.218;18.218;2022-11-03T06:56:08;5.50;;;3.90;;
13443;SDS011;6794;59.218;18.218;2022-11-03T06:58:36;11.40;;;5.03;;
13443;SDS011;6794;59.218;18.218;2022-11-03T07:01:36;8.27;;;4.30;;
13443;SDS011;6794;59.218;18.218;2022-11-03T07:03:56;10.87;;;5.10;;
13443;SDS011;6794;59.218;18.218;2022-11-03T07:06:24;9.80;;;5.23;;
13443;SDS011;6794;59.218;18.218;2022-11-03T07:08:54;11.50;;;6.57;;
13443;SDS011;6794;59.218;18.218;2022-11-03T07:11:22;6.57;;;4.47;;
13443;SDS011;6794;59.218;18.218;2022-11-03T07:13:49;8.93;;;4.97;;
13443;SDS011;6794;59.218;18.218;2022-11-03T07:18:50;12.43;;;8.13;;
13443;SDS011;6794;59.218;18.218;2022-11-03T07:23:46;10.88;;;7.35;;
13443;SDS011;6794;59.218;18.218;2022-11-03T07:26:12;9.57;;;4.90;;
13443;SDS011;6794;59.218;18.218;2022-11-03T07:28:38;10.47;;;4.97;;
13443;SDS011;6794;59.218;18.218;2022-11-03T07:31:21;10.93;;;5.07;;
13443;SDS011;6794;59.218;18.218;2022-11-03T07:33:48;10.23;;;4.93;;
13443;SDS011;6794;59.218;18.218;2022-11-03T07:36:18;7.07;;;4.30;;
13443;SDS011;6794;59.218;18.218;2022-11-03T07:38:46;7.67;;;4.40;;
13443;SDS011;6794;59.218;18.218;2022-11-03T07:41:17;6.23;;;4.20;;
13443;SDS011;6794;59.218;18.218;2022-11-03T07:43:43;17.33;;;4.47;;
13443;SDS011;6794;59.218;18.218;2022-11-03T07:46:15;11.70;;;4.07;;
13443;SDS011;6794;59.218;18.218;2022-11-03T07:48:44;13.60;;;3.83;;
13443;SDS011;6794;59.218;18.218;2022-11-03T07:51:15;9.87;;;3.70;;
13443;SDS011;6794;59.218;18.218;2022-11-03T07:53:43;8.77;;;3.83;;
13443;SDS011;6794;59.218;18.218;2022-11-03T07:56:14;5.90;;;3.50;;
13443;SDS011;6794;59.218;18.218;2022-11-03T07:58:42;8.83;;;3.40;;
13443;SDS011;6794;59.218;18.218;2022-11-03T08:01:22;10.03;;;3.97;;
13443;SDS011;6794;59.218;18.218;2022-11-03T08:03:49;11.47;;;3.30;;
13443;SDS011;6794;59.218;18.218;2022-11-03T08:06:15;13.17;;;4.03;;
13443;SDS011;6794;59.218;18.218;2022-11-03T08:08:41;13.20;;;3.70;;
13443;SDS011;6794;59.218;18.218;2022-11-03T08:11:07;8.53;;;3.47;;
13443;SDS011;6794;59.218;18.218;2022-11-03T08:13:33;11.47;;;3.70;;
13443;SDS011;6794;59.218;18.218;2022-11-03T08:15:59;6.20;;;3.80;;
13443;SDS011;6794;59.218;18.218;2022-11-03T08:18:25;9.67;;;3.80;;
13443;SDS011;6794;59.218;18.218;2022-11-03T08:20:52;11.93;;;3.63;;
13443;SDS011;6794;59.218;18.218;2022-11-03T08:23:18;10.10;;;3.70;;
13443;SDS011;6794;59.218;18.218;2022-11-03T08:25:44;9.47;;;3.57;;
13443;SDS011;6794;59.218;18.218;2022-11-03T08:28:10;11.40;;;3.50;;
13443;SDS011;6794;59.218;18.218;2022-11-03T08:30:36;9.43;;;3.53;;
13443;SDS011;6794;59.218;18.218;2022-11-03T08:33:02;9.03;;;3.10;;
13443;SDS011;6794;59.218;18.218;2022-11-03T08:35:28;9.80;;;3.40;;
13443;SDS011;6794;59.218;18.218;2022-11-03T08:37:54;10.13;;;3.83;;
13443;SDS011;6794;59.218;18.218;2022-11-03T08:40:20;9.60;;;3.50;;
13443;SDS011;6794;59.218;18.218;2022-11-03T08:42:46;6.87;;;3.23;;
13443;SDS011;6794;59.218;18.218;2022-11-03T08:45:13;8.73;;;3.40;;
13443;SDS011;6794;59.218;18.218;2022-11-03T08:47:40;8.57;;;3.40;;
13443;SDS011;6794;59.218;18.218;2022-11-03T08:50:06;7.10;;;3.67;;
13443;SDS011;6794;59.218;18.218;2022-11-03T08:52:32;8.87;;;3.23;;
13443;SDS011;6794;59.218;18.218;2022-11-03T08:54:58;10.07;;;3.30;;
13443;SDS011;6794;59.218;18.218;2022-11-03T08:57:24;11.40;;;3.57;;
13443;SDS011;6794;59.218;18.218;2022-11-03T08:59:50;13.77;;;4.20;;
13443;SDS011;6794;59.218;18.218;2022-11-03T09:02:17;7.30;;;3.60;;
13443;SDS011;6794;59.218;18.218;2022-11-03T09:04:43;17.13;;;3.63;;
13443;SDS011;6794;59.218;18.218;2022-11-03T09:07:09;11.13;;;3.43;;
13443;SDS011;6794;59.218;18.218;2022-11-03T09:09:35;9.27;;;3.93;;
13443;SDS011;6794;59.218;18.218;2022-11-03T09:12:01;9.33;;;3.80;;
13443;SDS011;6794;59.218;18.218;2022-11-03T09:14:27;10.43;;;3.60;;
13443;SDS011;6794;59.218;18.218;2022-11-03T09:16:53;14.17;;;4.23;;
13443;SDS011;6794;59.218;18.218;2022-11-03T09:19:19;10.97;;;3.63;;
13443;SDS011;6794;59.218;18.218;2022-11-03T09:21:45;7.70;;;3.33;;
13443;SDS011;6794;59.218;18.218;2022-11-03T09:24:11;15.57;;;3.83;;
13443;SDS011;6794;59.218;18.218;2022-11-03T09:26:37;13.70;;;3.80;;
13443;SDS011;6794;59.218;18.218;2022-11-03T09:29:03;7.70;;;3.50;;
13443;SDS011;6794;59.218;18.218;2022-11-03T09:31:29;10.37;;;3.53;;
13443;SDS011;6794;59.218;18.218;2022-11-03T09:33:56;12.80;;;4.17;;
13443;SDS011;6794;59.218;18.218;2022-11-03T09:36:22;12.87;;;4.40;;
13443;SDS011;6794;59.218;18.218;2022-11-03T09:38:48;12.97;;;3.90;;
13443;SDS011;6794;59.218;18.218;2022-11-03T09:41:14;12.57;;;3.20;;
13443;SDS011;6794;59.218;18.218;2022-11-03T09:43:44;15.20;;;3.53;;
13443;SDS011;6794;59.218;18.218;2022-11-03T09:46:10;11.23;;;2.77;;
13443;SDS011;6794;59.218;18.218;2022-11-03T09:48:36;11.83;;;3.40;;
13443;SDS011;6794;59.218;18.218;2022-11-03T09:51:03;10.13;;;3.77;;
13443;SDS011;6794;59.218;18.218;2022-11-03T09:53:29;13.73;;;3.40;;
13443;SDS011;6794;59.218;18.218;2022-11-03T09:55:55;9.67;;;2.90;;
13443;SDS011;6794;59.218;18.218;2022-11-03T09:58:21;23.33;;;3.93;;
13443;SDS011;6794;59.218;18.218;2022-11-03T10:00:47;10.50;;;2.77;;
13443;SDS011;6794;59.218;18.218;2022-11-03T10:03:14;10.10;;;3.00;;
13443;SDS011;6794;59.218;18.218;2022-11-03T10:05:42;7.57;;;2.77;;
13443;SDS011;6794;59.218;18.218;2022-11-03T10:08:22;7.50;;;2.63;;
13443;SDS011;6794;59.218;18.218;2022-11-03T10:10:49;15.70;;;3.00;;
13443;SDS011;6794;59.218;18.218;2022-11-03T10:13:23;9.60;;;2.73;;
13443;SDS011;6794;59.218;18.218;2022-11-03T10:15:52;11.20;;;2.90;;
13443;SDS011;6794;59.218;18.218;2022-11-03T10:18:18;6.37;;;2.23;;
13443;SDS011;6794;59.218;18.218;2022-11-03T10:20:44;11.57;;;3.20;;
13443;SDS011;6794;59.218;18.218;2022-11-03T10:23:11;11.40;;;3.87;;
13443;SDS011;6794;59.218;18.218;2022-11-03T10:34:01;11.67;;;3.07;;
13443;SDS011;6794;59.218;18.218;2022-11-03T10:36:29;14.00;;;2.77;;
13443;SDS011;6794;59.218;18.218;2022-11-03T10:38:56;12.00;;;2.63;;
13443;SDS011;6794;59.218;18.218;2022-11-03T10:44:07;10.97;;;3.17;;
13443;SDS011;6794;59.218;18.218;2022-11-03T10:46:54;9.40;;;2.83;;
13443;SDS011;6794;59.218;18.218;2022-11-03T10:49:20;10.67;;;3.07;;
13443;SDS011;6794;59.218;18.218;2022-11-03T10:51:46;10.77;;;2.67;;
13443;SDS011;6794;59.218;18.218;2022-11-03T10:54:14;11.27;;;2.60;;
13443;SDS011;6794;59.218;18.218;2022-11-03T10:56:41;9.33;;;2.63;;
13443;SDS011;6794;59.218;18.218;2022-11-03T10:59:08;8.27;;;2.70;;
13443;SDS011;6794;59.218;18.218;2022-11-03T11:01:37;14.20;;;3.00;;
13443;SDS011;6794;59.218;18.218;2022-11-03T11:04:03;10.97;;;2.37;;
13443;SDS011;6794;59.218;18.218;2022-11-03T11:06:29;8.30;;;2.53;;
13443;SDS011;6794;59.218;18.218;2022-11-03T11:08:59;8.87;;;2.50;;
13443;SDS011;6794;59.218;18.218;2022-11-03T11:11:26;10.47;;;2.80;;
13443;SDS011;6794;59.218;18.218;2022-11-03T11:16:48;9.03;;;3.87;;
13443;SDS011;6794;59.218;18.218;2022-11-03T11:19:14;14.07;;;3.70;;
13443;SDS011;6794;59.218;18.218;2022-11-03T11:24:10;14.67;;;3.37;;
13443;SDS011;6794;59.218;18.218;2022-11-03T11:26:36;11.70;;;3.33;;
13443;SDS011;6794;59.218;18.218;2022-11-03T11:31:33;11.77;;;2.90;;
13443;SDS011;6794;59.218;18.218;2022-11-03T11:34:44;11.23;;;2.93;;
13443;SDS011;6794;59.218;18.218;2022-11-03T11:39:31;10.13;;;3.40;;
13443;SDS011;6794;59.218;18.218;2022-11-03T11:42:07;10.33;;;2.73;;
13443;SDS011;6794;59.218;18.218;2022-11-03T11:55:30;9.82;;;2.88;;
13443;SDS011;6794;59.218;18.218;2022-11-03T11:57:58;9.17;;;2.20;;
13443;SDS011;6794;59.218;18.218;2022-11-03T12:00:33;13.50;;;2.40;;
13443;SDS011;6794;59.218;18.218;2022-11-03T12:03:00;8.33;;;2.53;;
13443;SDS011;6794;59.218;18.218;2022-11-03T12:05:30;7.37;;;1.80;;
13443;SDS011;6794;59.218;18.218;2022-11-03T12:07:57;9.50;;;2.13;;
13443;SDS011;6794;59.218;18.218;2022-11-03T12:10:24;7.37;;;2.33;;
13443;SDS011;6794;59.218;18.218;2022-11-03T12:12:51;8.77;;;2.00;;
13443;SDS011;6794;59.218;18.218;2022-11-03T12:18:26;12.70;;;2.63;;
13443;SDS011;6794;59.218;18.218;2022-11-03T12:20:48;6.03;;;1.93;;
13443;SDS011;6794;59.218;18.218;2022-11-03T12:23:33;6.97;;;1.90;;
13443;SDS011;6794;59.218;18.218;2022-11-03T12:26:00;8.43;;;1.70;;
13443;SDS011;6794;59.218;18.218;2022-11-03T12:28:32;7.40;;;1.90;;
13443;SDS011;6794;59.218;18.218;2022-11-03T12:30:59;8.40;;;2.23;;
13443;SDS011;6794;59.218;18.218;2022-11-03T12:33:26;6.67;;;2.10;;
13443;SDS011;6794;59.218;18.218;2022-11-03T12:35:53;11.43;;;2.40;;
13443;SDS011;6794;59.218;18.218;2022-11-03T12:38:19;10.43;;;2.20;;
13443;SDS011;6794;59.218;18.218;2022-11-03T12:40:45;6.70;;;1.83;;
13443;SDS011;6794;59.218;18.218;2022-11-03T12:43:11;11.53;;;2.80;;
13443;SDS011;6794;59.218;18.218;2022-11-03T12:45:37;10.20;;;2.40;;
13443;SDS011;6794;59.218;18.218;2022-11-03T12:48:05;13.23;;;2.33;;
13443;SDS011;6794;59.218;18.218;2022-11-03T12:50:31;12.13;;;2.50;;
13443;SDS011;6794;59.218;18.218;2022-11-03T12:52:57;11.40;;;2.60;;
13443;SDS011;6794;59.218;18.218;2022-11-03T12:55:23;7.27;;;2.30;;
13443;SDS011;6794;59.218;18.218;2022-11-03T12:57:49;11.00;;;2.43;;
13443;SDS011;6794;59.218;18.218;2022-11-03T13:00:15;10.20;;;2.37;;
13443;SDS011;6794;59.218;18.218;2022-11-03T13:02:42;13.17;;;2.60;;
13443;SDS011;6794;59.218;18.218;2022-11-03T13:05:08;9.93;;;2.60;;
13443;SDS011;6794;59.218;18.218;2022-11-03T13:07:39;12.43;;;3.33;;
13443;SDS011;6794;59.218;18.218;2022-11-03T13:10:05;5.57;;;2.10;;
13443;SDS011;6794;59.218;18.218;2022-11-03T13:12:31;10.07;;;2.00;;
13443;SDS011;6794;59.218;18.218;2022-11-03T13:14:58;9.17;;;2.57;;
13443;SDS011;6794;59.218;18.218;2022-11-03T13:17:25;14.70;;;2.60;;
13443;SDS011;6794;59.218;18.218;2022-11-03T13:19:51;14.53;;;2.70;;
13443;SDS011;6794;59.218;18.218;2022-11-03T13:22:17;13.10;;;2.90;;
13443;SDS011;6794;59.218;18.218;2022-11-03T13:24:43;12.07;;;2.70;;
13443;SDS011;6794;59.218;18.218;2022-11-03T13:27:09;12.55;;;2.78;;
13443;SDS011;6794;59.218;18.218;2022-11-03T13:29:35;12.43;;;2.87;;
13443;SDS011;6794;59.218;18.218;2022-11-03T13:32:02;13.97;;;2.57;;
13443;SDS011;6794;59.218;18.218;2022-11-03T13:34:28;14.37;;;2.83;;
13443;SDS011;6794;59.218;18.218;2022-11-03T13:36:54;15.67;;;2.60;;
13443;SDS011;6794;59.218;18.218;2022-11-03T13:39:20;14.60;;;2.77;;
13443;SDS011;6794;59.218;18.218;2022-11-03T13:41:46;10.13;;;2.30;;
13443;SDS011;6794;59.218;18.218;2022-11-03T13:44:13;9.97;;;2.27;;
13443;SDS011;6794;59.218;18.218;2022-11-03T13:46:39;13.07;;;2.63;;
13443;SDS011;6794;59.218;18.218;2022-11-03T13:49:05;18.20;;;2.70;;
13443;SDS011;6794;59.218;18.218;2022-11-03T13:51:31;12.03;;;2.77;;
13443;SDS011;6794;59.218;18.218;2022-11-03T13:53:57;16.90;;;3.13;;
13443;SDS011;6794;59.218;18.218;2022-11-03T13:56:23;13.50;;;2.87;;
13443;SDS011;6794;59.218;18.218;2022-11-03T13:58:49;13.10;;;3.00;;
13443;SDS011;6794;59.218;18.218;2022-11-03T14:01:15;15.50;;;2.63;;
13443;SDS011;6794;59.218;18.218;2022-11-03T14:03:41;15.93;;;2.43;;
13443;SDS011;6794;59.218;18.218;2022-11-03T14:06:07;14.10;;;2.87;;
13443;SDS011;6794;59.218;18.218;2022-11-03T14:08:33;12.57;;;2.80;;
13443;SDS011;6794;59.218;18.218;2022-11-03T14:11:00;12.67;;;3.23;;
13443;SDS011;6794;59.218;18.218;2022-11-03T14:13:49;18.53;;;3.80;;
13443;SDS011;6794;59.218;18.218;2022-11-03T14:16:15;11.37;;;3.30;;
13443;SDS011;6794;59.218;18.218;2022-11-03T14:18:41;15.30;;;3.50;;
13443;SDS011;6794;59.218;18.218;2022-11-03T14:21:07;11.60;;;3.03;;
13443;SDS011;6794;59.218;18.218;2022-11-03T14:23:33;12.80;;;2.87;;
13443;SDS011;6794;59.218;18.218;2022-11-03T14:25:59;15.50;;;3.10;;
13443;SDS011;6794;59.218;18.218;2022-11-03T14:28:25;9.97;;;3.00;;
13443;SDS011;6794;59.218;18.218;2022-11-03T14:30:51;13.90;;;2.97;;
13443;SDS011;6794;59.218;18.218;2022-11-03T14:33:19;14.03;;;2.80;;
13443;SDS011;6794;59.218;18.218;2022-11-03T14:35:45;12.20;;;3.13;;
13443;SDS011;6794;59.218;18.218;2022-11-03T14:38:11;13.27;;;2.67;;
13443;SDS011;6794;59.218;18.218;2022-11-03T14:40:37;12.33;;;2.53;;
13443;SDS011;6794;59.218;18.218;2022-11-03T14:43:22;12.23;;;3.20;;
13443;SDS011;6794;59.218;18.218;2022-11-03T14:45:48;11.53;;;3.80;;
13443;SDS011;6794;59.218;18.218;2022-11-03T14:48:14;17.47;;;5.13;;
13443;SDS011;6794;59.218;18.218;2022-11-03T14:50:40;21.37;;;7.10;;
13443;SDS011;6794;59.218;18.218;2022-11-03T14:53:06;29.27;;;10.73;;
13443;SDS011;6794;59.218;18.218;2022-11-03T14:55:32;20.83;;;12.17;;
13443;SDS011;6794;59.218;18.218;2022-11-03T14:57:58;29.30;;;13.90;;
13443;SDS011;6794;59.218;18.218;2022-11-03T15:00:24;22.87;;;12.40;;
13443;SDS011;6794;59.218;18.218;2022-11-03T15:02:50;21.43;;;11.13;;
13443;SDS011;6794;59.218;18.218;2022-11-03T15:05:16;21.30;;;11.90;;
13443;SDS011;6794;59.218;18.218;2022-11-03T15:08:00;20.73;;;8.67;;
13443;SDS011;6794;59.218;18.218;2022-11-03T15:10:26;13.67;;;6.00;;
13443;SDS011;6794;59.218;18.218;2022-11-03T15:12:53;18.47;;;6.40;;
13443;SDS011;6794;59.218;18.218;2022-11-03T15:15:19;13.00;;;5.40;;
13443;SDS011;6794;59.218;18.218;2022-11-03T15:17:45;17.67;;;5.17;;
13443;SDS011;6794;59.218;18.218;2022-11-03T15:20:11;16.53;;;5.97;;
13443;SDS011;6794;59.218;18.218;2022-11-03T15:22:37;18.40;;;5.33;;
13443;SDS011;6794;59.218;18.218;2022-11-03T15:25:03;15.40;;;5.47;;
13443;SDS011;6794;59.218;18.218;2022-11-03T15:27:29;18.57;;;5.83;;
13443;SDS011;6794;59.218;18.218;2022-11-03T15:29:55;22.90;;;6.40;;
13443;SDS011;6794;59.218;18.218;2022-11-03T15:32:21;13.77;;;4.60;;
13443;SDS011;6794;59.218;18.218;2022-11-03T15:34:47;13.03;;;4.80;;
13443;SDS011;6794;59.218;18.218;2022-11-03T15:37:13;14.43;;;4.63;;
13443;SDS011;6794;59.218;18.218;2022-11-03T15:39:40;18.27;;;5.63;;
13443;SDS011;6794;59.218;18.218;2022-11-03T15:42:08;17.43;;;5.20;;
13443;SDS011;6794;59.218;18.218;2022-11-03T15:44:34;17.43;;;6.57;;
13443;SDS011;6794;59.218;18.218;2022-11-03T15:47:00;14.10;;;5.40;;
13443;SDS011;6794;59.218;18.218;2022-11-03T15:49:26;16.17;;;5.70;;
13443;SDS011;6794;59.218;18.218;2022-11-03T15:51:52;12.83;;;5.03;;